Time;durP1;ratioP1;P1;durP2;ratioP2;P2;SDS_P1;SDS_P2;PMS_P1;PMS_P2;Temp;Humidity;BMP_temperature;BMP_pressure;BME280_temperature;BME280_humidity;BME280_pressure;Samples;Min_cycle;Max_cycle;Signal;HPM_P1;HPM_P2
2022/05/17 00:01:36;;;;;;;7.57;3.10;;;16.90;99.10;;;;;;5051040;28;20047;-71
2022/05/17 00:04:40;;;;;;;5.85;2.92;;;16.90;99.20;;;;;;5031749;28;20056;-71
2022/05/17 00:07:44;;;;;;;7.90;3.83;;;16.90;98.90;;;;;;5045867;28;20056;-71
2022/05/17 00:10:48;;;;;;;9.98;3.15;;;16.80;98.90;;;;;;5051125;28;20048;-71
2022/05/17 00:13:52;;;;;;;7.07;3.17;;;16.80;98.30;;;;;;5051100;28;20498;-71
2022/05/17 00:16:57;;;;;;;8.10;3.25;;;16.70;98.50;;;;;;5049827;28;20039;-70
2022/05/17 00:20:01;;;;;;;7.03;3.20;;;16.70;98.60;;;;;;5050373;28;20052;-71
2022/05/17 00:23:06;;;;;;;9.25;3.35;;;16.60;98.40;;;;;;5038888;28;20056;-71
2022/05/17 00:26:11;;;;;;;9.18;3.67;;;16.60;99.40;;;;;;5049785;28;20060;-71
2022/05/17 00:29:16;;;;;;;15.30;5.00;;;16.60;99.90;;;;;;5050054;28;20056;-71
2022/05/17 00:32:20;;;;;;;10.55;3.90;;;16.50;99.90;;;;;;5035053;28;20048;-70
2022/05/17 00:35:24;;;;;;;12.88;3.60;;;16.50;99.90;;;;;;5031247;28;20056;-71
2022/05/17 00:38:29;;;;;;;8.63;2.70;;;16.50;99.90;;;;;;5035760;28;20064;-71
2022/05/17 00:41:33;;;;;;;8.00;3.45;;;16.50;99.60;;;;;;5051230;28;20052;-71
2022/05/17 00:44:43;;;;;;;12.00;3.45;;;16.50;99.50;;;;;;5050120;28;20068;-71
2022/05/17 00:48:04;;;;;;;11.27;3.33;;;16.50;99.60;;;;;;5049708;28;20039;-71
2022/05/17 00:51:08;;;;;;;7.15;2.95;;;16.50;99.20;;;;;;5050179;28;20035;-71
2022/05/17 00:54:15;;;;;;;8.52;3.10;;;16.60;99.30;;;;;;5030078;28;20052;-71
2022/05/17 00:57:32;;;;;;;6.72;3.10;;;16.50;99.20;;;;;;5042882;28;20048;-71
2022/05/17 01:00:48;;;;;;;9.75;3.20;;;16.60;99.30;;;;;;5036947;28;20048;-71
2022/05/17 01:04:05;;;;;;;9.50;3.45;;;16.50;99.90;;;;;;5050199;28;20044;-71
2022/05/17 01:07:16;;;;;;;12.65;3.22;;;16.60;99.90;;;;;;5030326;28;20040;-71
2022/05/17 01:10:23;;;;;;;10.48;3.83;;;16.50;99.90;;;;;;5043624;28;20044;-71
2022/05/17 01:16:50;;;;;;;11.27;3.85;;;16.50;99.90;;;;;;5050033;28;20048;-70
2022/05/17 01:19:55;;;;;;;12.18;4.28;;;16.40;99.90;;;;;;5044765;28;20052;-71
2022/05/17 01:22:59;;;;;;;5.38;3.33;;;16.40;99.90;;;;;;5049527;28;20056;-71
2022/05/17 01:26:04;;;;;;;9.38;3.30;;;16.40;99.90;;;;;;5049728;28;20071;-71
2022/05/17 01:29:10;;;;;;;6.38;3.25;;;16.40;99.90;;;;;;5049511;28;20050;-71
2022/05/17 01:32:14;;;;;;;8.82;3.55;;;16.40;99.90;;;;;;5049004;28;20051;-71
2022/05/17 01:35:19;;;;;;;9.10;3.65;;;16.30;99.90;;;;;;5049979;28;20044;-71
2022/05/17 01:38:23;;;;;;;9.75;3.88;;;16.30;99.90;;;;;;5045963;28;20490;-71
2022/05/17 01:41:28;;;;;;;11.95;3.65;;;16.20;99.90;;;;;;5049085;28;20052;-71
2022/05/17 01:44:33;;;;;;;7.75;4.22;;;16.10;99.90;;;;;;5049692;28;20044;-71
2022/05/17 01:47:37;;;;;;;9.23;3.97;;;16.00;99.90;;;;;;5029547;28;20256;-71
2022/05/17 01:50:41;;;;;;;11.63;4.28;;;16.00;99.90;;;;;;5043823;28;20052;-71
2022/05/17 01:53:45;;;;;;;9.60;3.55;;;15.90;99.90;;;;;;5049221;28;20036;-71
2022/05/17 01:56:49;;;;;;;12.52;4.28;;;15.90;99.90;;;;;;5029776;28;20060;-71
2022/05/17 01:59:53;;;;;;;12.20;4.22;;;15.90;99.90;;;;;;5045460;28;20060;-71
2022/05/17 02:02:57;;;;;;;10.27;3.83;;;16.00;99.90;;;;;;5049128;28;20388;-71
2022/05/17 02:06:02;;;;;;;7.70;3.67;;;16.00;99.90;;;;;;5029037;28;20061;-71
2022/05/17 02:09:06;;;;;;;7.60;3.63;;;15.90;99.90;;;;;;5047330;28;20044;-71
2022/05/17 02:12:11;;;;;;;13.35;4.20;;;15.90;99.90;;;;;;5048827;28;20048;-70
2022/05/17 02:15:15;;;;;;;10.32;4.22;;;15.90;99.90;;;;;;5048486;28;20040;-70
2022/05/17 02:18:20;;;;;;;12.77;3.95;;;15.80;99.90;;;;;;5048964;28;20052;-71
2022/05/17 02:21:25;;;;;;;7.78;3.70;;;15.70;99.90;;;;;;5052585;28;20376;-71
2022/05/17 02:24:31;;;;;;;9.13;3.85;;;15.60;99.90;;;;;;5052597;28;20064;-71
2022/05/17 02:27:35;;;;;;;7.50;3.55;;;15.60;99.90;;;;;;5051118;28;20036;-70
2022/05/17 02:30:42;;;;;;;8.50;3.80;;;15.60;99.90;;;;;;5052271;28;20051;-70
2022/05/17 02:33:47;;;;;;;14.02;4.00;;;15.60;99.90;;;;;;5052940;28;20052;-70
2022/05/17 02:36:51;;;;;;;9.80;4.35;;;15.50;99.90;;;;;;5052447;28;20040;-70
2022/05/17 02:39:55;;;;;;;15.13;4.38;;;15.30;99.90;;;;;;5051831;28;20052;-70
2022/05/17 02:43:00;;;;;;;9.45;3.90;;;15.20;99.90;;;;;;5052950;28;20119;-70
2022/05/17 02:46:05;;;;;;;9.90;4.25;;;15.10;99.90;;;;;;5052553;28;20056;-70
2022/05/17 02:49:09;;;;;;;15.75;5.22;;;15.10;99.90;;;;;;5052094;28;20507;-71
2022/05/17 02:52:13;;;;;;;10.77;4.20;;;15.20;99.90;;;;;;5051435;28;20407;-70
2022/05/17 02:55:17;;;;;;;9.10;4.35;;;15.20;99.90;;;;;;5032749;28;20040;-70
2022/05/17 02:58:21;;;;;;;10.05;3.85;;;15.20;99.90;;;;;;5045468;28;20043;-70
2022/05/17 03:01:26;;;;;;;12.07;4.20;;;14.90;99.90;;;;;;5046982;28;20064;-70
2022/05/17 03:04:30;;;;;;;7.78;3.55;;;14.70;99.90;;;;;;5052194;28;20048;-70
2022/05/17 03:07:34;;;;;;;8.90;4.75;;;14.50;99.90;;;;;;5051722;28;20044;-70
2022/05/17 03:10:39;;;;;;;9.90;4.70;;;14.50;99.90;;;;;;5050930;28;20436;-70
2022/05/17 03:13:43;;;;;;;8.68;4.28;;;14.40;99.90;;;;;;5052525;28;20491;-70
2022/05/17 03:16:47;;;;;;;11.43;4.97;;;14.30;99.90;;;;;;5032069;28;20044;-70
2022/05/17 03:19:54;;;;;;;10.30;4.72;;;14.30;99.90;;;;;;5037892;28;20495;-70
2022/05/17 03:22:59;;;;;;;9.40;4.32;;;14.30;99.90;;;;;;5052288;28;20050;-70
2022/05/17 03:26:03;;;;;;;10.43;5.00;;;14.20;99.90;;;;;;5031656;28;20060;-70
2022/05/17 03:29:07;;;;;;;7.80;5.43;;;14.10;99.90;;;;;;5044809;28;20051;-70
2022/05/17 03:32:12;;;;;;;13.10;5.43;;;14.10;99.90;;;;;;5051702;28;20048;-70
2022/05/17 03:35:17;;;;;;;11.93;6.03;;;14.10;99.90;;;;;;5027244;28;20495;-70
2022/05/17 03:38:21;;;;;;;11.50;5.65;;;14.00;99.90;;;;;;5046637;28;20055;-70
2022/05/17 03:41:26;;;;;;;13.55;5.88;;;14.00;99.90;;;;;;5051439;28;20052;-70
2022/05/17 03:44:29;;;;;;;14.63;6.47;;;14.00;99.90;;;;;;5051415;28;20040;-70
2022/05/17 03:47:33;;;;;;;14.77;6.53;;;13.90;99.90;;;;;;5050573;28;20047;-70
2022/05/17 03:50:37;;;;;;;14.27;6.63;;;13.90;99.90;;;;;;5050546;28;20071;-70
2022/05/17 03:53:42;;;;;;;15.18;7.35;;;13.80;99.90;;;;;;5050797;28;20484;-70
2022/05/17 03:56:47;;;;;;;14.43;6.35;;;13.80;99.90;;;;;;5045949;28;20044;-70
2022/05/17 03:59:51;;;;;;;16.27;8.23;;;13.80;99.90;;;;;;5050425;28;20527;-71
2022/05/17 04:02:55;;;;;;;14.90;6.78;;;13.70;99.90;;;;;;5050988;28;20047;-70
2022/05/17 04:05:59;;;;;;;11.70;6.88;;;13.70;99.90;;;;;;5050646;28;20059;-70
2022/05/17 04:09:05;;;;;;;14.95;6.25;;;13.70;99.90;;;;;;5050244;28;20060;-70
2022/05/17 04:12:10;;;;;;;16.20;6.43;;;13.80;99.90;;;;;;5051163;28;20044;-70
2022/05/17 04:15:18;;;;;;;13.90;6.50;;;13.90;99.90;;;;;;5050642;28;20075;-70
2022/05/17 04:18:22;;;;;;;14.57;6.22;;;14.00;99.90;;;;;;5049431;28;20056;-70
2022/05/17 04:21:26;;;;;;;12.95;7.25;;;14.10;99.90;;;;;;5047546;28;20051;-70
2022/05/17 04:24:31;;;;;;;18.42;7.95;;;14.00;99.90;;;;;;5050671;28;20036;-70
2022/05/17 04:27:35;;;;;;;15.02;7.30;;;14.00;99.90;;;;;;5049679;28;20056;-70
2022/05/17 04:30:40;;;;;;;16.17;6.20;;;14.00;99.90;;;;;;5050111;28;20495;-70
2022/05/17 04:33:44;;;;;;;16.08;7.43;;;14.10;99.90;;;;;;5050371;28;20056;-71
2022/05/17 04:36:48;;;;;;;12.15;7.10;;;14.10;99.90;;;;;;5048818;28;20044;-70
2022/05/17 04:39:52;;;;;;;14.63;7.55;;;14.10;99.90;;;;;;5049861;28;20052;-71
2022/05/17 04:42:57;;;;;;;16.38;7.93;;;14.50;99.90;;;;;;5050801;28;20044;-70
2022/05/17 04:46:01;;;;;;;14.23;6.82;;;16.60;99.90;;;;;;5029955;28;20040;-70
2022/05/17 04:49:07;;;;;;;14.35;6.05;;;18.70;99.90;;;;;;5037592;28;20416;-70
2022/05/17 04:52:11;;;;;;;13.23;6.03;;;20.20;99.90;;;;;;5049328;28;20068;-70
2022/05/17 04:55:18;;;;;;;11.93;6.15;;;21.30;99.90;;;;;;5030322;28;20036;-71
2022/05/17 04:58:22;;;;;;;13.20;6.10;;;22.30;99.90;;;;;;5035367;28;20059;-71
2022/05/17 05:01:27;;;;;;;15.13;6.45;;;22.90;99.90;;;;;;5050448;28;20047;-70
2022/05/17 05:04:31;;;;;;;14.90;6.97;;;23.40;99.90;;;;;;5049268;28;20440;-71
2022/05/17 05:07:35;;;;;;;14.20;6.38;;;23.60;99.90;;;;;;5049334;28;20032;-71
2022/05/17 05:10:42;;;;;;;17.48;7.15;;;23.90;99.90;;;;;;5049323;28;20048;-71
2022/05/17 05:13:46;;;;;;;14.30;7.07;;;24.30;99.50;;;;;;5030288;28;20036;-71
2022/05/17 05:16:50;;;;;;;10.45;5.63;;;24.70;98.90;;;;;;5044371;28;20510;-71
2022/05/17 05:19:55;;;;;;;16.38;5.50;;;25.00;97.90;;;;;;5049454;28;20048;-71
2022/05/17 05:22:59;;;;;;;10.30;5.75;;;25.50;97.30;;;;;;5050240;28;20064;-71
2022/05/17 05:26:06;;;;;;;14.25;5.75;;;25.60;96.70;;;;;;5048973;28;20071;-70
2022/05/17 05:29:11;;;;;;;12.50;5.45;;;25.70;96.00;;;;;;5049058;28;20048;-71
2022/05/17 05:32:15;;;;;;;8.93;5.03;;;26.00;96.00;;;;;;5050056;28;20131;-71
2022/05/17 05:35:20;;;;;;;13.90;5.85;;;24.90;95.80;;;;;;5044359;28;20044;-71
2022/05/17 05:38:25;;;;;;;7.88;4.95;;;25.30;96.10;;;;;;5049071;28;20048;-71
2022/05/17 05:41:29;;;;;;;16.90;5.03;;;25.60;96.00;;;;;;5050213;28;20032;-71
2022/05/17 05:44:34;;;;;;;8.32;5.00;;;25.70;95.30;;;;;;5049530;28;20502;-71
2022/05/17 05:47:38;;;;;;;12.30;5.13;;;25.40;95.00;;;;;;5050908;28;20048;-71
2022/05/17 05:50:42;;;;;;;11.80;5.40;;;25.80;94.90;;;;;;5053825;28;20155;-71
2022/05/17 05:53:46;;;;;;;11.75;5.18;;;23.90;95.80;;;;;;5052238;28;20040;-71
2022/05/17 05:56:52;;;;;;;17.90;5.93;;;24.10;96.30;;;;;;5052543;28;20044;-71
2022/05/17 05:59:57;;;;;;;12.43;5.43;;;24.90;96.30;;;;;;5053352;28;20395;-71
2022/05/17 06:03:01;;;;;;;13.80;5.53;;;24.80;95.80;;;;;;5033748;28;20049;-71
2022/05/17 06:06:08;;;;;;;12.23;5.20;;;25.30;95.60;;;;;;5047956;28;20044;-71
2022/05/17 06:09:13;;;;;;;11.77;4.95;;;24.90;96.10;;;;;;5052927;28;20068;-71
2022/05/17 06:12:17;;;;;;;11.35;4.75;;;24.60;95.80;;;;;;5053209;28;20052;-71
2022/05/17 06:15:21;;;;;;;11.00;3.70;;;25.80;94.90;;;;;;5052644;28;20044;-71
2022/05/17 06:18:26;;;;;;;14.90;4.18;;;26.30;93.30;;;;;;5046204;28;20045;-71
2022/05/17 06:21:29;;;;;;;13.00;4.55;;;26.30;92.60;;;;;;5050654;28;20059;-71
2022/05/17 06:24:33;;;;;;;11.48;3.88;;;24.30;93.90;;;;;;5047807;28;20052;-71
2022/05/17 06:27:38;;;;;;;9.25;4.30;;;23.10;95.90;;;;;;5040721;28;20051;-70
2022/05/17 06:30:43;;;;;;;7.00;4.18;;;23.40;96.30;;;;;;5050447;28;20044;-71
2022/05/17 06:33:47;;;;;;;9.18;4.05;;;24.10;95.40;;;;;;5052111;28;20048;-71
2022/05/17 06:36:50;;;;;;;8.35;4.30;;;25.00;94.60;;;;;;5050930;28;20040;-71
2022/05/17 06:39:55;;;;;;;12.85;4.95;;;25.20;94.20;;;;;;5050388;28;20056;-72
2022/05/17 06:42:59;;;;;;;13.82;5.15;;;24.90;94.30;;;;;;5050374;28;20052;-72
2022/05/17 06:46:05;;;;;;;8.50;3.95;;;23.00;96.10;;;;;;5050892;28;20048;-71
2022/05/17 06:49:09;;;;;;;10.30;4.50;;;24.60;95.40;;;;;;5047747;28;20154;-71
2022/05/17 06:52:14;;;;;;;13.30;4.57;;;25.90;94.30;;;;;;5042271;28;20590;-73
2022/05/17 06:55:18;;;;;;;13.68;5.00;;;25.90;93.40;;;;;;5046350;28;20044;-71
2022/05/17 06:58:22;;;;;;;9.65;4.10;;;24.40;95.00;;;;;;5046921;28;20064;-71
2022/05/17 07:01:26;;;;;;;10.65;5.05;;;25.90;93.90;;;;;;5045544;28;20608;-71
2022/05/17 07:04:33;;;;;;;13.10;4.10;;;25.30;94.20;;;;;;5048358;28;20068;-71
2022/05/17 07:07:38;;;;;;;17.40;4.85;;;25.40;94.50;;;;;;5050649;28;20040;-71
2022/05/17 07:14:07;;;;;;;9.55;4.05;;;27.10;93.30;;;;;;5049681;28;20372;-72
2022/05/17 07:17:17;;;;;;;8.13;3.78;;;28.80;91.80;;;;;;5048276;28;20495;-70
2022/05/17 07:20:23;;;;;;;9.23;4.38;;;29.40;91.00;;;;;;5050408;28;20048;-71
2022/05/17 07:23:27;;;;;;;6.95;3.60;;;28.00;91.20;;;;;;5051977;28;20052;-71
2022/05/17 07:26:31;;;;;;;8.38;4.18;;;28.60;91.40;;;;;;5044508;28;20052;-73
2022/05/17 07:29:35;;;;;;;10.55;4.28;;;29.10;91.30;;;;;;5043301;28;20048;-70
2022/05/17 07:32:39;;;;;;;12.23;3.92;;;30.40;90.00;;;;;;5055768;28;20044;-70
2022/05/17 07:35:43;;;;;;;11.68;4.05;;;31.60;88.00;;;;;;5048810;28;20510;-69
2022/05/17 07:38:48;;;;;;;7.22;4.30;;;31.50;85.80;;;;;;5048423;28;20052;-69
2022/05/17 07:41:52;;;;;;;8.57;4.18;;;32.40;85.80;;;;;;5047107;28;20044;-69
2022/05/17 07:44:56;;;;;;;8.27;4.18;;;31.40;83.70;;;;;;5043663;28;20045;-69
2022/05/17 07:48:02;;;;;;;9.10;4.07;;;31.30;85.00;;;;;;5045776;28;20044;-69
2022/05/17 07:51:06;;;;;;;6.97;3.40;;;32.20;84.50;;;;;;5049742;28;20040;-69
2022/05/17 07:54:10;;;;;;;14.93;4.40;;;33.20;83.90;;;;;;5042790;28;20049;-69
2022/05/17 07:57:15;;;;;;;15.90;3.97;;;30.10;83.80;;;;;;5030675;28;20621;-69
2022/05/17 08:00:19;;;;;;;9.00;3.63;;;30.00;84.90;;;;;;5050072;28;20052;-69
2022/05/17 08:03:24;;;;;;;9.80;4.43;;;32.00;82.70;;;;;;5048796;28;20052;-69
2022/05/17 08:06:28;;;;;;;10.80;4.20;;;31.20;81.80;;;;;;5048432;28;20040;-69
2022/05/17 08:09:34;;;;;;;11.55;4.75;;;31.60;83.20;;;;;;5056420;28;20048;-69
2022/05/17 08:12:39;;;;;;;6.10;3.20;;;33.90;79.80;;;;;;5044728;28;20486;-69
2022/05/17 08:15:43;;;;;;;11.23;3.60;;;35.10;76.20;;;;;;5046267;28;20040;-70
2022/05/17 08:18:48;;;;;;;9.75;3.85;;;35.50;73.80;;;;;;5048150;28;20036;-71
2022/05/17 08:21:52;;;;;;;10.93;3.70;;;36.30;71.80;;;;;;5036967;28;20056;-69
2022/05/17 08:28:20;;;;;;;3.30;2.22;;;37.40;69.50;;;;;;5042422;28;20044;-69
2022/05/17 08:31:24;;;;;;;12.32;2.65;;;38.10;65.50;;;;;;5049450;28;20052;-70
2022/05/17 08:34:28;;;;;;;6.38;2.10;;;38.40;61.20;;;;;;5042970;28;20059;-69
2022/05/17 08:37:32;;;;;;;5.82;2.38;;;38.20;58.70;;;;;;5043165;28;20027;-70
2022/05/17 08:40:55;;;;;;;7.43;2.53;;;38.60;58.50;;;;;;5046403;28;20044;-69
2022/05/17 08:44:03;;;;;;;9.55;2.70;;;36.80;58.20;;;;;;5032056;28;20051;-69
2022/05/17 08:47:12;;;;;;;4.60;2.20;;;38.50;58.90;;;;;;5046697;28;20032;-69
2022/05/17 08:50:25;;;;;;;;;;;39.60;58.90;;;;;;5047893;28;20490;-69
2022/05/17 08:53:29;;;;;;;21.33;3.08;;;39.90;58.90;;;;;;5043625;28;20260;-72
2022/05/17 08:56:38;;;;;;;8.68;2.50;;;40.90;58.20;;;;;;5050051;28;20059;-71
2022/05/17 08:59:44;;;;;;;10.63;2.63;;;41.30;56.50;;;;;;5030569;28;20052;-72
2022/05/17 09:03:01;;;;;;;11.40;2.42;;;41.90;57.20;;;;;;5047624;28;20040;-72
2022/05/17 09:06:08;;;;;;;7.95;2.58;;;42.50;56.70;;;;;;5048394;28;20043;-72
2022/05/17 09:09:40;;;;;;;12.85;2.55;;;43.20;55.90;;;;;;5031586;28;20044;-72
2022/05/17 09:13:01;;;;;;;10.00;2.83;;;43.40;55.10;;;;;;5021111;28;20083;-71
2022/05/17 09:16:06;;;;;;;7.57;2.65;;;42.70;55.30;;;;;;5048620;28;20040;-72
2022/05/17 09:19:10;;;;;;;10.48;2.47;;;42.60;55.10;;;;;;5046518;28;20052;-71
2022/05/17 09:22:14;;;;;;;11.75;2.85;;;42.20;54.60;;;;;;5045073;28;20056;-71
2022/05/17 09:25:25;;;;;;;12.00;2.50;;;41.30;55.20;;;;;;5051867;28;20043;-71
2022/05/17 09:29:04;;;;;;;7.15;2.40;;;41.60;55.70;;;;;;5050328;28;20036;-71
2022/05/17 09:32:11;;;;;;;6.25;2.45;;;39.90;54.80;;;;;;5054035;28;20048;-72
2022/05/17 09:35:24;;;;;;;12.15;3.08;;;37.90;59.00;;;;;;5032489;28;20311;-72
2022/05/17 09:38:35;;;;;;;8.85;3.25;;;40.50;58.00;;;;;;5044686;28;20045;-73
2022/05/17 09:41:41;;;;;;;12.10;2.92;;;43.00;56.80;;;;;;5048478;28;20047;-72
2022/05/17 09:44:45;;;;;;;9.05;3.33;;;39.60;58.30;;;;;;5043734;28;20060;-72
2022/05/17 09:47:56;;;;;;;12.80;2.78;;;39.70;57.10;;;;;;5036834;28;20051;-72
2022/05/17 09:54:33;;;;;;;8.00;2.55;;;39.50;56.80;;;;;;5044665;28;20044;-72
2022/05/17 09:57:49;;;;;;;10.13;3.00;;;41.90;57.80;;;;;;5048533;28;20032;-70
2022/05/17 10:00:54;;;;;;;7.22;2.80;;;42.20;55.10;;;;;;5046243;28;20494;-71
2022/05/17 10:04:21;;;;;;;10.23;2.50;;;43.90;54.70;;;;;;5059055;28;20047;-71
2022/05/17 10:07:29;;;;;;;5.38;2.10;;;44.80;53.80;;;;;;5043960;28;20044;-72
2022/05/17 10:10:45;;;;;;;8.30;2.50;;;45.30;54.40;;;;;;5049137;28;20047;-73
2022/05/17 10:14:09;;;;;;;6.60;2.05;;;45.20;53.50;;;;;;5047927;28;20056;-71
2022/05/17 10:17:35;;;;;;;6.47;2.33;;;45.30;51.50;;;;;;5045827;28;20056;-72
2022/05/17 10:20:44;;;;;;;7.28;2.00;;;46.10;52.00;;;;;;5047230;28;20044;-71
2022/05/17 10:24:02;;;;;;;9.40;2.47;;;47.10;49.00;;;;;;5049601;28;20040;-69
2022/05/17 10:27:19;;;;;;;7.13;2.10;;;46.90;49.50;;;;;;5048621;28;20040;-72
2022/05/17 10:30:51;;;;;;;5.32;2.20;;;44.00;50.20;;;;;;5043851;28;20051;-71
2022/05/17 10:34:25;;;;;;;5.10;2.00;;;44.90;48.80;;;;;;5047092;28;20594;-73
2022/05/17 10:37:51;;;;;;;8.00;2.75;;;45.10;49.50;;;;;;5050769;28;20044;-71
2022/05/17 10:40:57;;;;;;;10.30;2.20;;;44.60;49.80;;;;;;5071100;28;20059;-72
2022/05/17 10:44:03;;;;;;;10.20;2.33;;;44.10;49.90;;;;;;5048074;28;20045;-69
2022/05/17 10:47:33;;;;;;;11.00;2.40;;;44.80;49.60;;;;;;5052429;28;20056;-71
2022/05/17 10:51:02;;;;;;;11.88;2.90;;;45.00;50.50;;;;;;5022706;28;20068;-72
2022/05/17 10:54:25;;;;;;;6.53;2.17;;;44.30;49.90;;;;;;5047040;28;20043;-72
2022/05/17 10:58:00;;;;;;;6.72;2.10;;;45.20;50.10;;;;;;5053418;28;20044;-71
2022/05/17 11:01:30;;;;;;;6.72;2.35;;;45.00;51.40;;;;;;5049314;28;20044;-72
2022/05/17 11:04:58;;;;;;;5.93;2.40;;;44.70;51.20;;;;;;5044159;28;20044;-72
2022/05/17 11:08:27;;;;;;;10.57;2.65;;;45.10;51.10;;;;;;5045607;28;20047;-71
2022/05/17 11:11:53;;;;;;;8.02;2.50;;;38.50;53.00;;;;;;5046234;28;20416;-72
2022/05/17 11:15:09;;;;;;;8.27;2.60;;;36.40;57.70;;;;;;5030801;28;20499;-71
2022/05/17 11:18:43;;;;;;;6.80;2.95;;;39.50;54.30;;;;;;5052140;28;20044;-71
2022/05/17 11:21:54;;;;;;;12.20;3.72;;;40.00;54.70;;;;;;5054940;28;20494;-71
2022/05/17 11:25:29;;;;;;;9.73;2.80;;;37.50;55.60;;;;;;5041911;28;20060;-72
2022/05/17 11:29:00;;;;;;;12.38;2.92;;;39.10;54.90;;;;;;5046893;28;20043;-71
2022/05/17 11:32:23;;;;;;;13.13;2.85;;;40.60;56.20;;;;;;5043502;28;20048;-71
2022/05/17 11:35:31;;;;;;;7.07;2.83;;;41.70;54.70;;;;;;5044490;28;20049;-72
2022/05/17 11:38:35;;;;;;;11.23;2.95;;;37.90;55.60;;;;;;5040770;28;20040;-72
2022/05/17 11:41:48;;;;;;;7.38;3.25;;;37.00;57.30;;;;;;5045279;28;20055;-71
2022/05/17 11:44:53;;;;;;;7.80;2.97;;;39.00;55.80;;;;;;5046537;28;20068;-72
2022/05/17 11:47:59;;;;;;;7.32;3.60;;;40.30;57.00;;;;;;5047559;28;20052;-72
2022/05/17 11:51:05;;;;;;;11.98;3.50;;;40.80;55.80;;;;;;5045034;28;20044;-72
2022/05/17 11:54:10;;;;;;;9.30;2.70;;;40.60;54.50;;;;;;5043059;28;20048;-71
2022/05/17 11:57:23;;;;;;;13.07;3.08;;;40.50;54.90;;;;;;5041133;28;20036;-71
2022/05/17 12:00:27;;;;;;;13.90;4.20;;;41.20;55.80;;;;;;5028457;28;20086;-71
2022/05/17 12:03:53;;;;;;;8.60;3.22;;;41.50;55.60;;;;;;5044682;28;20148;-71
2022/05/17 12:07:17;;;;;;;7.75;2.95;;;41.80;57.30;;;;;;5047737;28;20040;-71
2022/05/17 12:10:22;;;;;;;8.98;3.00;;;41.70;56.70;;;;;;5045336;28;20036;-71
2022/05/17 12:13:29;;;;;;;8.57;3.13;;;41.40;57.50;;;;;;5043761;28;20044;-71
2022/05/17 12:16:33;;;;;;;10.82;3.30;;;41.50;56.90;;;;;;5048210;28;20032;-73
2022/05/17 12:19:49;;;;;;;11.60;3.40;;;41.30;55.90;;;;;;5046120;28;20400;-71
2022/05/17 12:23:15;;;;;;;7.43;3.17;;;39.50;55.40;;;;;;5048033;28;20498;-71
2022/05/17 12:26:28;;;;;;;13.82;3.47;;;38.10;58.50;;;;;;5044614;28;20055;-71
2022/05/17 12:33:22;;;;;;;12.63;3.42;;;38.10;59.20;;;;;;5048124;28;20399;-71
2022/05/17 12:36:29;;;;;;;10.50;3.22;;;38.20;60.10;;;;;;5046271;28;20479;-71
2022/05/17 12:43:06;;;;;;;11.35;3.60;;;37.90;60.40;;;;;;5045956;28;20379;-70
2022/05/17 12:46:30;;;;;;;11.35;3.17;;;37.70;60.00;;;;;;5034772;28;20040;-70
2022/05/17 12:49:38;;;;;;;7.55;3.47;;;37.80;60.00;;;;;;5047048;28;20044;-71
2022/05/17 12:52:46;;;;;;;14.40;3.35;;;37.70;59.90;;;;;;5047258;28;20435;-71
2022/05/17 12:56:26;;;;;;;10.82;3.30;;;37.80;60.70;;;;;;5045455;28;20076;-71
2022/05/17 12:59:33;;;;;;;10.80;3.60;;;37.40;61.60;;;;;;5048560;28;20032;-71
2022/05/17 13:02:54;;;;;;;15.20;3.53;;;36.90;59.90;;;;;;5039769;28;20052;-71
2022/05/17 13:06:04;;;;;;;15.20;3.95;;;36.50;61.80;;;;;;5050400;28;20412;-71
2022/05/17 13:09:20;;;;;;;12.63;3.10;;;35.10;61.20;;;;;;5057562;28;20032;-71
2022/05/17 13:12:27;;;;;;;13.02;3.30;;;34.60;63.90;;;;;;5048037;28;20047;-71
2022/05/17 13:15:31;;;;;;;11.55;3.38;;;34.30;63.20;;;;;;5042447;28;20028;-71
2022/05/17 13:18:46;;;;;;;11.45;3.63;;;33.70;63.40;;;;;;5048615;28;20060;-71
2022/05/17 13:21:54;;;;;;;12.38;3.95;;;34.20;65.50;;;;;;5044866;28;20063;-71
2022/05/17 13:25:06;;;;;;;12.00;3.22;;;34.80;65.40;;;;;;5050400;28;20060;-71
2022/05/17 13:28:11;;;;;;;11.20;3.22;;;35.10;63.20;;;;;;5051729;28;20052;-69
2022/05/17 13:31:23;;;;;;;9.88;3.88;;;35.50;63.40;;;;;;5048203;28;20040;-71
2022/05/17 13:34:31;;;;;;;12.35;3.80;;;35.40;62.80;;;;;;5046869;28;20031;-71
2022/05/17 13:37:55;;;;;;;13.70;3.30;;;35.20;63.20;;;;;;5043703;28;20420;-70
2022/05/17 13:41:03;;;;;;;11.60;4.00;;;34.10;65.40;;;;;;5055128;28;20047;-71
2022/05/17 13:44:09;;;;;;;10.90;3.25;;;33.50;64.70;;;;;;5044959;28;20036;-71
2022/05/17 13:47:22;;;;;;;10.85;3.65;;;33.60;64.10;;;;;;5041757;28;20056;-71
2022/05/17 13:50:28;;;;;;;12.82;3.70;;;33.30;65.80;;;;;;5052436;28;20055;-71
2022/05/17 13:53:38;;;;;;;11.98;3.67;;;33.20;64.20;;;;;;5048302;28;20036;-70
2022/05/17 13:56:50;;;;;;;17.77;4.37;;;33.30;65.20;;;;;;5048280;28;20048;-71
2022/05/17 13:59:58;;;;;;;19.83;4.07;;;33.70;67.50;;;;;;5055157;28;20495;-71
2022/05/17 14:03:16;;;;;;;16.67;3.90;;;32.70;66.90;;;;;;5050524;28;20055;-71
2022/05/17 14:06:20;;;;;;;12.00;4.13;;;33.00;68.60;;;;;;5055550;28;20036;-73
2022/05/17 14:13:07;;;;;;;14.55;3.80;;;33.40;66.70;;;;;;5040070;28;20132;-71
2022/05/17 14:16:20;;;;;;;15.48;3.83;;;33.30;67.10;;;;;;5058219;28;20043;-71
2022/05/17 14:19:26;;;;;;;12.38;3.28;;;33.20;65.40;;;;;;5050141;28;20506;-71
2022/05/17 14:22:31;;;;;;;12.73;3.65;;;32.80;67.30;;;;;;5057470;28;20052;-72
2022/05/17 14:25:36;;;;;;;10.32;3.58;;;32.80;69.00;;;;;;5056633;28;20052;-71
2022/05/17 14:28:42;;;;;;;12.02;3.30;;;32.20;65.70;;;;;;5049951;28;20040;-70
2022/05/17 14:31:47;;;;;;;10.50;3.67;;;32.00;69.10;;;;;;5055640;28;20040;-71
2022/05/17 14:34:53;;;;;;;15.80;3.70;;;32.00;70.00;;;;;;5051957;28;20040;-71
2022/05/17 14:37:58;;;;;;;14.15;4.45;;;31.90;70.40;;;;;;5052752;28;20108;-71
2022/05/17 14:41:04;;;;;;;11.35;3.80;;;32.10;68.90;;;;;;5058008;28;20051;-72
2022/05/17 14:44:09;;;;;;;12.15;4.22;;;32.20;69.80;;;;;;5052355;28;20064;-70
2022/05/17 14:47:24;;;;;;;9.98;3.40;;;32.20;68.90;;;;;;5045141;28;20260;-70
2022/05/17 14:50:29;;;;;;;10.05;3.53;;;32.00;69.70;;;;;;5051070;28;20056;-71
2022/05/17 14:53:34;;;;;;;8.95;3.55;;;31.90;71.40;;;;;;5051287;28;20052;-70
2022/05/17 14:56:38;;;;;;;13.13;3.70;;;31.70;71.10;;;;;;5050177;28;20040;-71
2022/05/17 14:59:42;;;;;;;12.70;4.75;;;31.60;71.40;;;;;;5051640;28;20419;-72
2022/05/17 15:03:01;;;;;;;16.60;4.47;;;31.30;71.00;;;;;;5051086;28;21477;-71
2022/05/17 15:06:06;;;;;;;13.60;4.03;;;31.00;71.70;;;;;;5051734;28;20494;-71
2022/05/17 15:09:10;;;;;;;16.55;4.25;;;30.90;73.10;;;;;;5052631;28;20395;-71
2022/05/17 15:12:16;;;;;;;8.70;3.60;;;30.80;72.60;;;;;;5048996;28;20306;-71
2022/05/17 15:15:20;;;;;;;17.73;3.65;;;30.60;72.90;;;;;;5056465;28;20061;-71
2022/05/17 15:18:26;;;;;;;12.70;3.78;;;30.60;72.70;;;;;;5051537;28;20040;-71
2022/05/17 15:21:33;;;;;;;11.43;3.72;;;30.60;73.90;;;;;;5047951;28;20044;-71
2022/05/17 15:24:38;;;;;;;18.10;4.05;;;30.40;73.80;;;;;;5051276;28;20057;-72
2022/05/17 15:27:44;;;;;;;13.38;3.47;;;30.20;74.20;;;;;;5051534;28;20064;-71
2022/05/17 15:30:48;;;;;;;13.15;3.58;;;30.00;75.00;;;;;;5050749;28;20514;-71
2022/05/17 15:33:52;;;;;;;16.42;4.82;;;29.80;74.30;;;;;;5052579;28;20040;-71
2022/05/17 15:36:58;;;;;;;10.88;3.83;;;29.70;75.30;;;;;;5052283;28;20055;-70
2022/05/17 15:40:05;;;;;;;10.68;4.07;;;29.50;74.50;;;;;;5049475;28;20040;-70
2022/05/17 15:43:09;;;;;;;9.50;4.05;;;29.20;75.80;;;;;;5045458;28;20372;-71
2022/05/17 15:46:22;;;;;;;11.00;3.92;;;29.00;77.00;;;;;;5034301;28;20047;-70
2022/05/17 15:56:13;;;;;;;15.70;4.43;;;28.90;77.20;;;;;;5056402;28;20047;-70
2022/05/17 15:59:19;;;;;;;16.10;4.38;;;29.00;77.70;;;;;;5057510;28;20335;-70
2022/05/17 16:02:23;;;;;;;8.68;3.33;;;28.90;78.80;;;;;;5046552;28;20048;-70
2022/05/17 16:05:27;;;;;;;11.23;3.90;;;28.90;79.20;;;;;;5052252;28;20056;-70
2022/05/17 16:08:31;;;;;;;11.77;3.53;;;28.90;80.10;;;;;;5060147;28;20052;-71
2022/05/17 16:11:50;;;;;;;12.85;3.97;;;28.90;79.60;;;;;;5062723;28;20402;-70
2022/05/17 16:14:53;;;;;;;14.38;4.63;;;28.90;79.20;;;;;;5052032;28;20048;-70
2022/05/17 16:18:01;;;;;;;10.40;3.50;;;28.80;80.30;;;;;;5029155;28;20412;-71
2022/05/17 16:21:05;;;;;;;11.60;4.22;;;28.70;79.00;;;;;;5031686;28;20404;-70
2022/05/17 16:24:09;;;;;;;13.32;4.57;;;28.60;79.20;;;;;;5044372;28;20055;-71
2022/05/17 16:27:14;;;;;;;12.32;3.80;;;28.40;80.10;;;;;;5050302;28;20064;-70
2022/05/17 16:30:23;;;;;;;19.00;3.85;;;28.30;80.20;;;;;;5030716;28;20061;-70
2022/05/17 16:33:30;;;;;;;15.07;3.47;;;28.20;80.50;;;;;;5042435;28;20063;-70
2022/05/17 16:36:34;;;;;;;10.50;3.92;;;28.00;79.80;;;;;;5036932;28;20052;-70
2022/05/17 16:39:38;;;;;;;12.13;3.72;;;27.90;79.80;;;;;;5050413;28;20048;-70
2022/05/17 16:42:42;;;;;;;9.20;3.30;;;27.60;79.60;;;;;;5036229;28;20048;-70